Time;durP1;ratioP1;P1;durP2;ratioP2;P2;SDS_P1;SDS_P2;PMS_P1;PMS_P2;Temp;Humidity;BMP_temperature;BMP_pressure;BME280_temperature;BME280_humidity;BME280_pressure;Samples;Min_cycle;Max_cycle;Signal;HPM_P1;HPM_P2
2024/01/19 00:00:53;;;;;;;0.10;0.10;;;2.70;99.90;;;;;;5034994;28;20092;-70
2024/01/19 00:03:18;;;;;;;0.10;0.10;;;2.50;99.90;;;;;;5035263;28;20088;-70
2024/01/19 00:05:44;;;;;;;0.17;0.17;;;2.50;99.90;;;;;;5035476;28;20033;-70
2024/01/19 00:08:10;;;;;;;0.28;0.17;;;2.40;99.90;;;;;;5035482;28;20091;-71
2024/01/19 00:10:36;;;;;;;0.00;0.00;;;2.50;99.90;;;;;;5035142;28;20047;-70
2024/01/19 00:13:02;;;;;;;0.10;0.10;;;2.70;99.90;;;;;;5035256;28;20068;-70
2024/01/19 00:15:28;;;;;;;0.10;0.10;;;2.60;99.90;;;;;;5035270;28;20029;-70
2024/01/19 00:20:35;;;;;;;0.10;0.10;;;2.50;99.90;;;;;;5033787;28;20045;-71
2024/01/19 00:23:01;;;;;;;0.15;0.15;;;2.40;99.90;;;;;;5035204;28;20022;-71
2024/01/19 00:25:27;;;;;;;2.20;0.50;;;2.40;99.90;;;;;;5035153;28;20029;-69
2024/01/19 00:27:52;;;;;;;0.10;0.10;;;2.30;99.90;;;;;;5035053;28;20041;-70
2024/01/19 00:30:18;;;;;;;0.20;0.20;;;2.40;99.90;;;;;;5035037;28;20053;-70
2024/01/19 00:32:44;;;;;;;0.40;0.40;;;2.50;99.90;;;;;;5034530;28;20033;-69
2024/01/19 00:35:10;;;;;;;0.10;0.10;;;2.40;99.90;;;;;;5035118;28;20033;-70
2024/01/19 00:37:36;;;;;;;0.10;0.10;;;2.20;99.90;;;;;;5035261;28;20232;-70
2024/01/19 00:40:03;;;;;;;0.43;0.43;;;2.30;99.90;;;;;;5035076;28;20022;-70
2024/01/19 00:42:29;;;;;;;0.75;0.75;;;2.30;99.90;;;;;;5034868;28;20028;-70
2024/01/19 00:44:54;;;;;;;0.10;0.10;;;2.10;99.90;;;;;;5034834;28;20029;-70
2024/01/19 00:47:20;;;;;;;0.28;0.28;;;2.20;99.90;;;;;;5034533;28;20120;-69
2024/01/19 00:49:46;;;;;;;3.80;1.17;;;2.10;99.90;;;;;;5034783;28;20034;-69
2024/01/19 00:52:12;;;;;;;0.38;0.38;;;1.90;99.90;;;;;;5034677;28;20437;-69
2024/01/19 00:54:37;;;;;;;0.55;0.55;;;1.90;99.90;;;;;;5034967;28;20382;-70
2024/01/19 00:57:03;;;;;;;0.30;0.30;;;1.90;99.90;;;;;;5020260;28;20037;-70
2024/01/19 00:59:29;;;;;;;5.97;0.93;;;1.90;99.90;;;;;;5034703;28;20023;-70
2024/01/19 01:01:55;;;;;;;0.17;0.17;;;1.80;99.90;;;;;;5034085;28;20448;-71
2024/01/19 01:04:21;;;;;;;0.20;0.20;;;1.90;99.90;;;;;;5034256;28;20568;-69
2024/01/19 01:06:47;;;;;;;0.77;0.77;;;1.90;99.90;;;;;;5033000;28;20118;-70
2024/01/19 01:09:12;;;;;;;0.13;0.13;;;1.90;99.90;;;;;;5034474;28;20040;-70
2024/01/19 01:11:38;;;;;;;0.32;0.32;;;1.90;99.90;;;;;;5034518;28;20375;-70
2024/01/19 01:14:04;;;;;;;0.22;0.22;;;1.90;99.90;;;;;;5034282;28;20084;-70
2024/01/19 01:16:30;;;;;;;0.10;0.10;;;1.90;99.90;;;;;;5033873;28;20044;-69
2024/01/19 01:18:57;;;;;;;0.10;0.10;;;1.80;99.90;;;;;;5032392;28;20075;-70
2024/01/19 01:21:22;;;;;;;0.88;0.77;;;1.80;99.90;;;;;;5020244;28;20025;-69
2024/01/19 01:23:48;;;;;;;0.63;0.45;;;1.80;99.90;;;;;;5033987;28;20025;-69
2024/01/19 01:26:14;;;;;;;1.15;1.08;;;1.80;99.90;;;;;;5033909;28;20023;-69
2024/01/19 01:28:41;;;;;;;2.10;0.60;;;1.70;99.90;;;;;;5033750;28;20025;-70
2024/01/19 01:31:07;;;;;;;0.20;0.20;;;1.70;99.90;;;;;;5033453;28;20033;-69
2024/01/19 01:33:32;;;;;;;0.15;0.15;;;1.80;99.90;;;;;;5033895;28;20394;-69
2024/01/19 01:35:58;;;;;;;0.10;0.10;;;1.70;99.90;;;;;;5033505;28;20029;-69
2024/01/19 01:38:25;;;;;;;0.20;0.20;;;1.60;99.90;;;;;;5033708;28;20075;-69
2024/01/19 01:40:51;;;;;;;3.05;1.10;;;1.70;99.90;;;;;;5033653;28;20449;-69
2024/01/19 01:43:23;;;;;;;9.43;1.38;;;1.60;99.90;;;;;;5033526;28;20057;-68
2024/01/19 01:45:49;;;;;;;1.67;1.13;;;1.50;99.90;;;;;;5032078;28;20467;-70
2024/01/19 01:48:15;;;;;;;0.90;0.82;;;1.50;99.90;;;;;;5033445;28;20030;-69
2024/01/19 01:50:43;;;;;;;4.10;1.65;;;1.50;99.90;;;;;;5032122;28;20025;-69
2024/01/19 01:53:10;;;;;;;0.60;0.60;;;1.50;99.90;;;;;;5033292;28;20041;-70
2024/01/19 01:55:36;;;;;;;0.40;0.40;;;1.50;99.90;;;;;;5033573;28;20104;-69
2024/01/19 01:58:03;;;;;;;0.30;0.30;;;1.50;99.90;;;;;;5033500;28;20065;-69
2024/01/19 02:00:30;;;;;;;2.13;1.98;;;1.40;99.90;;;;;;5033003;28;20589;-69
2024/01/19 02:02:57;;;;;;;0.10;0.10;;;1.40;99.90;;;;;;5032022;28;20474;-70
2024/01/19 02:05:23;;;;;;;0.25;0.25;;;1.40;99.90;;;;;;5033208;28;20068;-69
2024/01/19 02:07:49;;;;;;;1.88;0.95;;;1.40;99.90;;;;;;5031174;28;20109;-68
2024/01/19 02:10:15;;;;;;;0.10;0.10;;;1.50;99.90;;;;;;5033264;28;20477;-69
2024/01/19 02:12:41;;;;;;;0.10;0.10;;;1.40;99.90;;;;;;5033008;28;20030;-69
2024/01/19 02:15:20;;;;;;;0.98;0.75;;;1.40;99.90;;;;;;5032767;28;20021;-68
2024/01/19 02:17:48;;;;;;;0.70;0.47;;;1.40;99.90;;;;;;5032865;28;20022;-70
2024/01/19 02:20:13;;;;;;;0.13;0.13;;;1.30;99.90;;;;;;5032621;28;20045;-69
2024/01/19 02:22:39;;;;;;;0.10;0.10;;;1.30;99.90;;;;;;5032902;28;20028;-69
2024/01/19 02:25:06;;;;;;;0.15;0.15;;;1.40;99.90;;;;;;5032974;28;20034;-69
2024/01/19 02:27:32;;;;;;;3.30;1.77;;;1.50;99.90;;;;;;5033075;28;20025;-69
2024/01/19 02:29:58;;;;;;;1.75;0.90;;;1.50;99.90;;;;;;5032285;28;20490;-69
2024/01/19 02:32:25;;;;;;;3.80;1.55;;;1.50;99.90;;;;;;5020452;28;20030;-68
2024/01/19 02:34:50;;;;;;;0.17;0.17;;;1.60;99.90;;;;;;5031720;28;20026;-68
2024/01/19 02:37:17;;;;;;;3.67;2.78;;;1.50;99.90;;;;;;5022202;28;20552;-70
2024/01/19 02:39:43;;;;;;;0.13;0.13;;;1.40;99.90;;;;;;5029918;28;20486;-69
2024/01/19 02:42:09;;;;;;;0.10;0.10;;;1.40;99.90;;;;;;5032685;28;20120;-68
2024/01/19 02:44:34;;;;;;;0.73;0.73;;;1.40;99.90;;;;;;5030887;28;20029;-69
2024/01/19 02:47:00;;;;;;;0.10;0.10;;;1.50;99.90;;;;;;5026177;28;20026;-70
2024/01/19 02:49:26;;;;;;;0.57;0.57;;;1.40;99.90;;;;;;5007923;28;20042;-69
2024/01/19 02:51:52;;;;;;;0.43;0.43;;;1.50;99.90;;;;;;5032808;28;20072;-69
2024/01/19 02:54:18;;;;;;;0.52;0.52;;;1.40;99.90;;;;;;5031328;28;20069;-69
2024/01/19 02:56:43;;;;;;;0.10;0.10;;;1.40;99.90;;;;;;5032650;28;20096;-69
2024/01/19 02:59:10;;;;;;;0.10;0.10;;;1.30;99.90;;;;;;5032384;28;20056;-69
2024/01/19 03:01:36;;;;;;;0.95;0.93;;;1.20;99.90;;;;;;5032416;28;20482;-69
2024/01/19 03:04:02;;;;;;;0.43;0.43;;;1.10;99.90;;;;;;5032762;28;20109;-70
2024/01/19 03:06:28;;;;;;;0.73;0.70;;;1.10;99.90;;;;;;5032531;28;20029;-69
2024/01/19 03:08:54;;;;;;;4.00;0.90;;;1.30;99.90;;;;;;5032346;28;20034;-69
2024/01/19 03:11:20;;;;;;;31.65;1.35;;;1.10;99.90;;;;;;5032503;28;20053;-71
2024/01/19 03:13:49;;;;;;;1.65;1.38;;;1.10;99.90;;;;;;5032460;28;20053;-68
2024/01/19 03:16:15;;;;;;;0.35;0.35;;;1.10;99.90;;;;;;5032167;28;20109;-69
2024/01/19 03:18:41;;;;;;;0.10;0.10;;;1.30;99.90;;;;;;5032598;28;20109;-69
2024/01/19 03:21:06;;;;;;;0.10;0.10;;;1.20;99.90;;;;;;5022003;28;20432;-69
2024/01/19 03:23:32;;;;;;;1.35;0.73;;;1.20;99.90;;;;;;5036158;28;20087;-68
2024/01/19 03:25:58;;;;;;;0.70;0.38;;;1.20;99.90;;;;;;5035989;28;20052;-70
2024/01/19 03:28:24;;;;;;;5.28;2.25;;;1.20;99.90;;;;;;5034431;28;20520;-68
2024/01/19 03:30:50;;;;;;;0.10;0.10;;;1.10;99.90;;;;;;5035847;28;20041;-69
2024/01/19 03:33:17;;;;;;;0.10;0.10;;;1.20;99.90;;;;;;5035616;28;20083;-69
2024/01/19 03:35:43;;;;;;;0.22;0.22;;;1.20;99.90;;;;;;5035838;28;20038;-69
2024/01/19 03:38:08;;;;;;;0.47;0.47;;;1.20;99.90;;;;;;5035744;28;20120;-69
2024/01/19 03:40:34;;;;;;;0.10;0.10;;;1.30;99.90;;;;;;5035582;28;20068;-69
2024/01/19 03:43:01;;;;;;;1.30;1.20;;;1.20;99.90;;;;;;5032308;28;20024;-68
2024/01/19 03:45:27;;;;;;;0.10;0.10;;;1.40;99.90;;;;;;5035169;28;20382;-69
2024/01/19 03:47:52;;;;;;;0.00;0.00;;;1.40;99.90;;;;;;5035351;28;20034;-69
2024/01/19 03:50:18;;;;;;;0.20;0.20;;;1.50;99.90;;;;;;5034045;28;20128;-69
2024/01/19 03:52:44;;;;;;;0.10;0.10;;;1.30;99.90;;;;;;5035577;28;20026;-70
2024/01/19 03:55:10;;;;;;;1.55;0.65;;;1.30;99.90;;;;;;5034198;28;20390;-69
2024/01/19 03:57:36;;;;;;;8.20;1.40;;;1.20;99.90;;;;;;5035058;28;20034;-69
2024/01/19 04:00:05;;;;;;;0.20;0.20;;;1.10;99.90;;;;;;5035177;28;20049;-70
2024/01/19 04:02:37;;;;;;;0.20;0.20;;;1.10;99.90;;;;;;5035283;28;20112;-69
2024/01/19 04:05:04;;;;;;;0.10;0.10;;;1.10;99.90;;;;;;5035245;28;20156;-69
2024/01/19 04:07:30;;;;;;;0.40;0.30;;;0.90;99.90;;;;;;5035281;28;20022;-68
2024/01/19 04:09:55;;;;;;;3.05;0.75;;;0.90;99.90;;;;;;5034725;28;20034;-69
2024/01/19 04:12:21;;;;;;;2.28;1.45;;;0.80;99.90;;;;;;5035072;28;20441;-68
2024/01/19 04:14:47;;;;;;;0.20;0.20;;;0.90;99.90;;;;;;5035075;28;20095;-68
2024/01/19 04:17:13;;;;;;;0.88;0.88;;;1.00;99.90;;;;;;5034940;28;20399;-67
2024/01/19 04:19:40;;;;;;;0.13;0.13;;;0.90;99.90;;;;;;5033651;28;20395;-68
2024/01/19 04:22:06;;;;;;;0.15;0.15;;;0.80;99.90;;;;;;5034792;28;20091;-69
2024/01/19 04:24:32;;;;;;;0.10;0.10;;;0.90;99.90;;;;;;5034648;28;20022;-69
2024/01/19 04:26:58;;;;;;;4.18;1.15;;;0.90;99.90;;;;;;5034831;28;20517;-70
2024/01/19 04:29:24;;;;;;;0.10;0.10;;;0.90;99.90;;;;;;5034373;28;20104;-69
2024/01/19 04:31:50;;;;;;;8.90;1.00;;;0.80;99.90;;;;;;5034369;28;20072;-69
2024/01/19 04:34:16;;;;;;;0.13;0.13;;;0.80;99.90;;;;;;5034559;28;20049;-69
2024/01/19 04:36:42;;;;;;;0.10;0.10;;;1.00;99.90;;;;;;5034695;28;20075;-69
2024/01/19 04:39:08;;;;;;;0.10;0.10;;;1.00;99.90;;;;;;5034433;28;20437;-70
2024/01/19 04:41:34;;;;;;;0.80;0.80;;;1.00;99.90;;;;;;5033490;28;20025;-70
2024/01/19 04:44:00;;;;;;;1.15;0.40;;;0.80;99.90;;;;;;5034597;28;20029;-69
2024/01/19 04:46:26;;;;;;;1.55;1.45;;;0.70;99.90;;;;;;5034228;28;20014;-69
2024/01/19 04:48:52;;;;;;;0.38;0.38;;;0.70;99.90;;;;;;5034336;28;20189;-69
2024/01/19 04:51:17;;;;;;;0.45;0.45;;;0.70;99.90;;;;;;5034396;28;20095;-70
2024/01/19 04:53:43;;;;;;;0.70;0.70;;;0.70;99.90;;;;;;5034370;28;20491;-70
2024/01/19 04:56:09;;;;;;;2.70;1.27;;;0.70;99.90;;;;;;5033381;28;20033;-68
2024/01/19 04:58:37;;;;;;;0.10;0.10;;;0.60;99.90;;;;;;5034892;28;20450;-70
2024/01/19 05:01:03;;;;;;;0.30;0.30;;;0.60;99.90;;;;;;5034561;28;20036;-70
2024/01/19 05:03:30;;;;;;;0.45;0.43;;;0.60;99.90;;;;;;5034115;28;20496;-70
2024/01/19 05:05:56;;;;;;;0.08;0.08;;;0.60;99.90;;;;;;5033125;28;20029;-70
2024/01/19 05:08:22;;;;;;;2.05;1.75;;;0.60;99.90;;;;;;5033899;28;20089;-69
2024/01/19 05:10:48;;;;;;;0.50;0.50;;;0.50;99.90;;;;;;5034164;28;20041;-69
2024/01/19 05:13:13;;;;;;;0.10;0.10;;;0.40;99.90;;;;;;5032911;28;20028;-70
2024/01/19 05:15:39;;;;;;;0.32;0.32;;;0.50;99.90;;;;;;5034173;28;20033;-70
2024/01/19 05:18:05;;;;;;;1.27;1.17;;;0.50;99.90;;;;;;5033886;28;20030;-70
2024/01/19 05:20:31;;;;;;;5.28;1.95;;;0.50;99.90;;;;;;5033886;28;20029;-70
2024/01/19 05:22:57;;;;;;;2.25;1.55;;;0.50;99.90;;;;;;5033634;28;20083;-71
2024/01/19 05:25:23;;;;;;;1.40;1.30;;;0.60;99.90;;;;;;5032653;28;20026;-68
2024/01/19 05:27:53;;;;;;;0.73;0.73;;;0.50;99.90;;;;;;5033831;28;20129;-69
2024/01/19 05:30:23;;;;;;;0.82;0.60;;;0.40;99.90;;;;;;5033833;28;20530;-69
2024/01/19 05:32:49;;;;;;;1.83;1.23;;;0.50;99.90;;;;;;5033868;28;20037;-69
2024/01/19 05:35:15;;;;;;;0.47;0.40;;;0.50;99.90;;;;;;5033705;28;20159;-68
2024/01/19 05:37:41;;;;;;;1.27;1.17;;;0.60;99.90;;;;;;5033490;28;20087;-68
2024/01/19 05:40:08;;;;;;;0.25;0.25;;;0.40;99.90;;;;;;5033781;28;20438;-69
2024/01/19 05:42:34;;;;;;;0.22;0.22;;;0.40;99.90;;;;;;5033560;28;20064;-69
2024/01/19 05:45:00;;;;;;;0.65;0.65;;;0.50;99.90;;;;;;5032372;28;20052;-68
2024/01/19 05:47:26;;;;;;;0.50;0.50;;;0.50;99.90;;;;;;5033612;28;20171;-69
2024/01/19 05:49:51;;;;;;;1.35;1.25;;;0.60;99.90;;;;;;5033427;28;20184;-69
2024/01/19 05:52:18;;;;;;;2.17;1.23;;;0.50;99.90;;;;;;5033401;28;20029;-68
2024/01/19 05:54:44;;;;;;;3.47;1.05;;;0.50;99.90;;;;;;5033256;28;20029;-70
2024/01/19 05:57:11;;;;;;;0.28;0.28;;;0.50;99.90;;;;;;5033756;28;20029;-69
2024/01/19 05:59:39;;;;;;;0.10;0.10;;;0.60;99.90;;;;;;5033111;28;20040;-69
2024/01/19 06:02:05;;;;;;;0.55;0.55;;;0.60;99.90;;;;;;5027726;28;20021;-69
2024/01/19 06:04:33;;;;;;;0.50;0.50;;;0.50;99.90;;;;;;5031244;28;20104;-69
2024/01/19 06:07:02;;;;;;;0.40;0.40;;;0.80;99.90;;;;;;5032554;28;20374;-69
2024/01/19 06:09:29;;;;;;;3.65;0.57;;;0.70;99.90;;;;;;5032949;28;20024;-70
2024/01/19 06:11:56;;;;;;;0.20;0.20;;;0.60;99.90;;;;;;5033199;28;20053;-69
2024/01/19 06:14:21;;;;;;;10.43;3.10;;;0.60;99.90;;;;;;5031871;28;20036;-69
2024/01/19 06:16:47;;;;;;;3.75;2.05;;;0.50;99.90;;;;;;5032589;28;20025;-70
2024/01/19 06:19:13;;;;;;;4.13;3.85;;;0.50;99.90;;;;;;5032722;28;20030;-70
2024/01/19 06:21:45;;;;;;;0.20;0.20;;;0.50;99.90;;;;;;5019415;28;20053;-68
2024/01/19 06:24:14;;;;;;;1.02;1.02;;;0.50;99.90;;;;;;5019358;28;20025;-70
2024/01/19 06:26:45;;;;;;;1.60;0.88;;;0.50;99.90;;;;;;5032161;28;20026;-68
2024/01/19 06:29:11;;;;;;;0.10;0.10;;;0.50;99.90;;;;;;5031753;28;20029;-69
2024/01/19 06:31:44;;;;;;;0.20;0.20;;;0.50;99.90;;;;;;5032923;28;20033;-69
2024/01/19 06:34:11;;;;;;;3.40;1.27;;;0.60;99.90;;;;;;5032575;28;20371;-69
2024/01/19 06:36:36;;;;;;;0.43;0.43;;;0.50;99.90;;;;;;5032714;28;20021;-70
2024/01/19 06:39:02;;;;;;;1.60;1.48;;;0.50;99.90;;;;;;5031184;28;20021;-69
2024/01/19 06:41:28;;;;;;;4.57;1.95;;;0.60;99.90;;;;;;5032942;28;20025;-68
2024/01/19 06:43:54;;;;;;;0.55;0.55;;;0.60;99.90;;;;;;5032678;28;20156;-70
2024/01/19 06:46:20;;;;;;;0.50;0.50;;;0.70;99.90;;;;;;5032673;28;20025;-70
2024/01/19 06:48:46;;;;;;;0.68;0.50;;;0.50;99.90;;;;;;5019292;28;20037;-69
2024/01/19 06:51:23;;;;;;;1.38;1.27;;;0.70;99.90;;;;;;5032018;28;20042;-69
2024/01/19 06:53:49;;;;;;;3.55;2.40;;;0.50;99.90;;;;;;5033411;28;20021;-69
2024/01/19 06:56:16;;;;;;;0.10;0.10;;;0.30;99.90;;;;;;5036734;28;20033;-69
2024/01/19 06:58:42;;;;;;;0.70;0.70;;;0.30;99.90;;;;;;5036803;28;20092;-69
2024/01/19 07:01:08;;;;;;;0.40;0.40;;;0.20;99.90;;;;;;5036630;28;20040;-68
2024/01/19 07:03:33;;;;;;;0.00;0.00;;;0.20;99.90;;;;;;5036395;28;20026;-68
2024/01/19 07:05:59;;;;;;;7.22;2.72;;;0.30;99.90;;;;;;5034896;28;20033;-68
2024/01/19 07:08:25;;;;;;;0.95;0.45;;;0.30;99.90;;;;;;5036411;28;20018;-69
2024/01/19 07:10:51;;;;;;;1.17;0.55;;;0.20;99.90;;;;;;5036254;28;20524;-69
2024/01/19 07:13:16;;;;;;;2.25;1.30;;;0.20;99.90;;;;;;5036279;28;20108;-69
2024/01/19 07:15:42;;;;;;;0.85;0.85;;;0.20;99.90;;;;;;5036336;28;20467;-68
2024/01/19 07:18:08;;;;;;;0.10;0.10;;;0.10;99.90;;;;;;5036093;28;20414;-69
2024/01/19 07:20:34;;;;;;;0.15;0.15;;;0.20;99.90;;;;;;5035804;28;20072;-68
2024/01/19 07:23:01;;;;;;;0.10;0.10;;;0.30;99.90;;;;;;5036311;28;20026;-68
2024/01/19 07:25:27;;;;;;;1.45;1.15;;;0.30;99.90;;;;;;5035987;28;20038;-69
2024/01/19 07:27:52;;;;;;;0.45;0.45;;;0.30;99.90;;;;;;5036012;28;20022;-69
2024/01/19 07:30:18;;;;;;;0.20;0.20;;;0.30;99.90;;;;;;5034001;28;20583;-69
2024/01/19 07:32:44;;;;;;;0.40;0.40;;;0.30;99.90;;;;;;5036403;28;20041;-69
2024/01/19 07:35:10;;;;;;;0.20;0.20;;;0.40;99.90;;;;;;5039234;28;20471;-69
2024/01/19 07:37:37;;;;;;;0.28;0.28;;;0.50;99.90;;;;;;5036991;28;20382;-69
2024/01/19 07:40:03;;;;;;;2.05;0.52;;;0.40;99.90;;;;;;5044372;28;20032;-68
2024/01/19 07:42:29;;;;;;;0.52;0.52;;;0.40;99.90;;;;;;5040591;28;20480;-69
2024/01/19 07:44:55;;;;;;;0.10;0.10;;;0.30;99.90;;;;;;5035232;28;20068;-69
2024/01/19 07:47:21;;;;;;;0.10;0.10;;;0.20;99.90;;;;;;5038355;28;20044;-70
2024/01/19 07:49:48;;;;;;;0.52;0.52;;;0.50;99.90;;;;;;5036675;28;20556;-68
2024/01/19 07:52:14;;;;;;;2.28;1.05;;;0.50;99.90;;;;;;5049465;28;20052;-68
2024/01/19 07:54:40;;;;;;;0.55;0.20;;;0.40;99.90;;;;;;5045393;28;20032;-69
2024/01/19 07:57:06;;;;;;;0.10;0.10;;;0.40;99.90;;;;;;5038512;28;20051;-69
2024/01/19 07:59:31;;;;;;;3.67;3.33;;;0.40;99.90;;;;;;5036141;28;20032;-69
2024/01/19 08:01:59;;;;;;;0.10;0.10;;;0.50;99.90;;;;;;5038268;28;20037;-69
2024/01/19 08:04:24;;;;;;;0.28;0.28;;;0.30;99.90;;;;;;5047788;28;20093;-68
2024/01/19 08:06:50;;;;;;;2.60;2.40;;;0.10;99.90;;;;;;5035544;28;20545;-69
2024/01/19 08:09:16;;;;;;;3.97;3.60;;;0.30;99.90;;;;;;5037454;28;20026;-68
2024/01/19 08:11:43;;;;;;;0.93;0.90;;;0.10;99.90;;;;;;5035019;28;20136;-70
2024/01/19 08:14:09;;;;;;;0.10;0.10;;;0.00;99.90;;;;;;5050082;28;20139;-69
2024/01/19 08:16:34;;;;;;;0.57;0.40;;;0.20;99.90;;;;;;5046931;28;20021;-69
2024/01/19 08:19:02;;;;;;;0.10;0.10;;;0.30;99.90;;;;;;5038974;28;20048;-68
2024/01/19 08:21:28;;;;;;;0.95;0.93;;;0.30;99.90;;;;;;5036698;28;20030;-69
2024/01/19 08:23:54;;;;;;;0.90;0.90;;;0.30;99.90;;;;;;5049620;28;20101;-68
2024/01/19 08:26:20;;;;;;;2.08;1.50;;;0.30;99.90;;;;;;5049010;28;20055;-69
2024/01/19 08:28:46;;;;;;;0.10;0.10;;;0.60;99.90;;;;;;5043783;28;20489;-69
2024/01/19 08:31:13;;;;;;;0.20;0.20;;;0.70;99.90;;;;;;5035877;28;20033;-67
2024/01/19 08:33:39;;;;;;;4.15;1.00;;;0.80;99.90;;;;;;5035357;28;20160;-68
2024/01/19 08:36:05;;;;;;;0.10;0.10;;;0.80;99.90;;;;;;5050106;28;20032;-69
2024/01/19 08:38:31;;;;;;;0.65;0.65;;;0.70;99.90;;;;;;5048001;28;20051;-68
2024/01/19 08:40:56;;;;;;;2.83;2.28;;;0.70;99.90;;;;;;5040614;28;20021;-68
2024/01/19 08:43:22;;;;;;;0.20;0.20;;;0.70;99.90;;;;;;5037017;28;20021;-69
2024/01/19 08:45:48;;;;;;;0.70;0.43;;;0.80;99.90;;;;;;5034913;28;20038;-69
2024/01/19 08:48:15;;;;;;;3.08;1.58;;;1.00;99.90;;;;;;5049382;28;20017;-68
2024/01/19 08:50:44;;;;;;;0.98;0.98;;;1.10;99.90;;;;;;5046302;28;20037;-69
2024/01/19 08:53:10;;;;;;;1.63;1.52;;;1.10;99.90;;;;;;5044412;28;20489;-69
2024/01/19 08:55:39;;;;;;;1.05;0.95;;;0.90;99.90;;;;;;5039916;28;20035;-69
2024/01/19 08:58:12;;;;;;;0.17;0.17;;;1.00;99.90;;;;;;5035974;28;20021;-70
2024/01/19 09:00:38;;;;;;;0.20;0.20;;;1.10;99.90;;;;;;5035348;28;20385;-68
2024/01/19 09:03:04;;;;;;;2.17;1.70;;;1.10;99.90;;;;;;5043481;28;20044;-69
2024/01/19 09:05:30;;;;;;;0.10;0.10;;;1.10;99.90;;;;;;5032505;28;20017;-68
2024/01/19 09:07:56;;;;;;;1.17;0.40;;;1.30;99.90;;;;;;5046840;22;20025;-69
2024/01/19 09:10:23;;;;;;;0.10;0.10;;;1.40;99.90;;;;;;5033534;28;20497;-69
2024/01/19 09:12:49;;;;;;;0.57;0.57;;;1.50;99.90;;;;;;5042481;28;20423;-69
2024/01/19 09:15:16;;;;;;;4.22;2.13;;;1.50;99.90;;;;;;5045253;28;20017;-69
2024/01/19 09:17:42;;;;;;;3.25;2.30;;;1.60;99.90;;;;;;5040290;28;20092;-70
2024/01/19 09:20:08;;;;;;;0.68;0.68;;;2.10;99.90;;;;;;5030928;28;20079;-70
2024/01/19 09:22:34;;;;;;;0.20;0.20;;;2.20;99.90;;;;;;5040412;28;20092;-69
2024/01/19 09:25:00;;;;;;;0.40;0.40;;;2.70;99.90;;;;;;5050290;28;20116;-70
2024/01/19 09:27:27;;;;;;;0.00;0.00;;;2.90;99.90;;;;;;5042222;28;20021;-70
2024/01/19 09:29:56;;;;;;;0.17;0.17;;;3.40;99.90;;;;;;5040333;28;20025;-70
2024/01/19 09:32:22;;;;;;;3.20;1.92;;;3.70;99.90;;;;;;5020438;28;20029;-70
2024/01/19 09:34:48;;;;;;;0.35;0.35;;;3.70;99.90;;;;;;5042014;28;20104;-70
2024/01/19 09:37:14;;;;;;;6.00;0.68;;;3.80;99.90;;;;;;5047363;28;20104;-69
2024/01/19 09:39:40;;;;;;;0.40;0.40;;;4.10;99.90;;;;;;5040930;28;20021;-69
2024/01/19 09:42:26;;;;;;;0.00;0.00;;;4.40;99.90;;;;;;5041304;28;20060;-70
2024/01/19 09:45:17;;;;;;;2.72;1.30;;;4.20;99.90;;;;;;5031714;28;20037;-70
2024/01/19 09:47:58;;;;;;;0.85;0.35;;;5.00;99.90;;;;;;5044830;28;20022;-69
2024/01/19 09:50:26;;;;;;;0.35;0.35;;;4.90;99.90;;;;;;5045991;28;20044;-71
2024/01/19 09:52:58;;;;;;;0.10;0.10;;;4.80;99.90;;;;;;5046201;28;20029;-71
2024/01/19 09:55:29;;;;;;;2.10;0.85;;;4.80;99.90;;;;;;5037265;28;20033;-70
2024/01/19 09:57:57;;;;;;;0.15;0.15;;;4.60;99.90;;;;;;5033389;28;20029;-69
2024/01/19 10:00:23;;;;;;;3.40;2.45;;;4.60;99.90;;;;;;5032555;28;20060;-68
2024/01/19 10:02:51;;;;;;;1.55;0.40;;;4.70;99.90;;;;;;5041957;28;20036;-69
2024/01/19 10:05:18;;;;;;;3.05;2.58;;;4.70;99.90;;;;;;5040962;28;20390;-68
2024/01/19 10:07:53;;;;;;;2.53;2.15;;;4.90;99.90;;;;;;5036707;28;20025;-69
2024/01/19 10:10:19;;;;;;;0.55;0.55;;;5.00;99.90;;;;;;5033936;28;20025;-69
2024/01/19 10:12:45;;;;;;;0.50;0.40;;;4.90;99.90;;;;;;5032504;28;20047;-69
2024/01/19 10:15:14;;;;;;;1.38;1.27;;;5.00;99.90;;;;;;5041420;28;20533;-69
2024/01/19 10:17:41;;;;;;;3.40;2.70;;;4.80;99.90;;;;;;5038308;28;20048;-69
2024/01/19 10:20:14;;;;;;;6.60;3.40;;;5.10;99.90;;;;;;5038771;28;20500;-69
2024/01/19 10:22:40;;;;;;;0.20;0.20;;;5.10;99.90;;;;;;5040310;28;20024;-69
2024/01/19 10:25:08;;;;;;;0.68;0.68;;;4.70;99.90;;;;;;5048769;28;20556;-69
2024/01/19 10:27:47;;;;;;;1.55;0.90;;;4.60;99.90;;;;;;5041016;28;20379;-70
2024/01/19 10:30:29;;;;;;;1.55;1.45;;;5.20;99.90;;;;;;5028066;28;20132;-68
2024/01/19 10:33:06;;;;;;;2.28;1.55;;;4.10;99.90;;;;;;5033340;28;20504;-69
2024/01/19 10:35:32;;;;;;;0.43;0.43;;;4.30;99.90;;;;;;5045001;28;20029;-69
2024/01/19 10:40:31;;;;;;;0.65;0.65;;;5.30;99.90;;;;;;5030344;28;20441;-72
2024/01/19 10:42:57;;;;;;;1.38;1.10;;;5.60;99.90;;;;;;5035000;28;20038;-70
2024/01/19 10:45:25;;;;;;;0.10;0.10;;;5.40;99.90;;;;;;5032618;28;20486;-71
2024/01/19 10:50:32;;;;;;;2.25;2.00;;;6.00;99.90;;;;;;4666417;26;20041;-69
2024/01/19 10:53:00;;;;;;;1.70;1.42;;;6.20;99.90;;;;;;5031697;28;20359;-69
2024/01/19 10:55:30;;;;;;;5.00;1.17;;;5.70;99.90;;;;;;5031783;28;20065;-72
2024/01/19 10:58:10;;;;;;;0.10;0.10;;;6.70;99.90;;;;;;5039195;22;20501;-68
2024/01/19 11:00:36;;;;;;;0.10;0.10;;;7.30;99.90;;;;;;5012597;28;20081;-69
2024/01/19 11:03:03;;;;;;;2.58;1.40;;;7.40;99.90;;;;;;5015546;28;20030;-69
2024/01/19 11:05:30;;;;;;;2.60;1.90;;;7.20;99.90;;;;;;5011433;28;20061;-69
2024/01/19 11:10:32;;;;;;;6.72;1.33;;;7.90;99.90;;;;;;5030129;28;20056;-79
2024/01/19 11:12:59;;;;;;;2.53;1.15;;;7.70;99.90;;;;;;5031997;28;20374;-79
2024/01/19 11:15:34;;;;;;;6.43;1.85;;;7.30;99.90;;;;;;5022793;28;20033;-81
2024/01/19 11:18:02;;;;;;;2.17;2.00;;;7.00;99.90;;;;;;5021640;28;20391;-80
2024/01/19 11:20:31;;;;;;;5.72;3.15;;;6.20;99.90;;;;;;5015764;28;20352;-81
2024/01/19 11:22:59;;;;;;;6.53;1.65;;;6.00;99.90;;;;;;5022019;28;20426;-78
2024/01/19 11:25:45;;;;;;;10.93;5.47;;;6.80;99.90;;;;;;5025363;28;20026;-78
2024/01/19 11:28:24;;;;;;;0.95;0.95;;;7.10;99.90;;;;;;5015793;28;20073;-79
2024/01/19 11:31:18;;;;;;;4.63;2.85;;;7.40;99.90;;;;;;5014539;28;20453;-79
2024/01/19 11:33:43;;;;;;;;;;;7.30;99.90;;;;;;5013419;28;20414;-79
2024/01/19 11:36:10;;;;;;;4.65;2.75;;;7.50;99.90;;;;;;5027756;28;19924;-79
2024/01/19 11:38:38;;;;;;;1.17;1.17;;;7.70;99.90;;;;;;5030058;28;20032;-80
2024/01/19 11:41:05;;;;;;;0.57;0.57;;;8.20;99.90;;;;;;5018831;28;20491;-78
2024/01/19 11:43:51;;;;;;;2.38;1.35;;;8.40;99.90;;;;;;5030046;28;20033;-79
2024/01/19 11:46:41;;;;;;;5.05;2.50;;;8.30;99.90;;;;;;5018052;28;20382;-79
2024/01/19 11:49:08;;;;;;;1.13;0.98;;;8.30;99.90;;;;;;5022354;28;20046;-80
2024/01/19 11:51:34;;;;;;;0.68;0.68;;;7.60;99.90;;;;;;5024512;28;20109;-80
2024/01/19 11:54:04;;;;;;;1.85;1.58;;;8.20;99.90;;;;;;5027398;28;20375;-80
2024/01/19 11:56:31;;;;;;;1.08;0.63;;;8.20;99.90;;;;;;5023687;28;20033;-80
2024/01/19 11:58:58;;;;;;;2.92;2.22;;;9.00;99.90;;;;;;5024350;28;20013;-80
2024/01/19 12:01:24;;;;;;;0.73;0.70;;;9.50;99.90;;;;;;5028036;28;20479;-80
2024/01/19 12:03:54;;;;;;;9.55;4.13;;;8.70;99.90;;;;;;5013371;28;20117;-81
2024/01/19 12:06:21;;;;;;;0.10;0.10;;;8.40;99.90;;;;;;5020070;28;20478;-81
2024/01/19 12:09:06;;;;;;;2.78;1.42;;;8.60;99.90;;;;;;5026165;28;20036;-80
2024/01/19 12:11:34;;;;;;;2.45;1.10;;;9.00;99.90;;;;;;5027018;28;20394;-80
2024/01/19 12:14:03;;;;;;;4.57;2.63;;;9.20;99.90;;;;;;5017670;28;20026;-79
2024/01/19 12:16:30;;;;;;;0.73;0.73;;;8.60;99.90;;;;;;5028905;28;20034;-78
2024/01/19 12:18:58;;;;;;;4.97;2.78;;;8.30;99.90;;;;;;5020364;28;20056;-82
2024/01/19 12:21:24;;;;;;;2.45;1.55;;;8.70;99.90;;;;;;5023647;28;20026;-84
2024/01/19 12:23:57;;;;;;;0.45;0.45;;;9.10;99.90;;;;;;5007422;28;20036;-84
2024/01/19 12:26:24;;;;;;;0.98;0.65;;;8.70;99.90;;;;;;4997757;28;20125;-81
2024/01/19 12:28:51;;;;;;;5.00;1.27;;;9.40;99.90;;;;;;5014924;28;20037;-79
2024/01/19 12:31:22;;;;;;;1.73;1.58;;;9.60;99.90;;;;;;5014484;28;20368;-84
2024/01/19 12:33:48;;;;;;;8.27;2.10;;;8.60;99.90;;;;;;4998178;28;20030;-79
2024/01/19 12:36:17;;;;;;;4.63;2.05;;;8.70;99.90;;;;;;5014276;28;20072;-81
2024/01/19 12:38:44;;;;;;;2.33;1.25;;;8.80;99.90;;;;;;5012199;28;20457;-82
2024/01/19 12:41:17;;;;;;;2.33;1.90;;;9.30;99.90;;;;;;5013479;28;20017;-82
2024/01/19 12:43:44;;;;;;;5.03;3.30;;;9.50;99.90;;;;;;5014631;28;20034;-81
2024/01/19 12:46:10;;;;;;;1.85;1.42;;;10.20;99.90;;;;;;5014654;28;20418;-81
2024/01/19 12:48:36;;;;;;;1.75;1.05;;;10.40;99.90;;;;;;5017547;28;20029;-82
2024/01/19 12:51:04;;;;;;;2.53;1.55;;;11.00;99.90;;;;;;5000587;28;20045;-80
2024/01/19 12:53:32;;;;;;;0.20;0.20;;;9.50;99.90;;;;;;5000300;28;20418;-80
2024/01/19 12:56:01;;;;;;;2.33;1.35;;;9.70;99.90;;;;;;5013382;28;20505;-81
2024/01/19 12:58:27;;;;;;;2.58;1.20;;;9.80;99.90;;;;;;5014378;28;20028;-81
2024/01/19 13:01:03;;;;;;;1.98;0.75;;;9.90;99.90;;;;;;5014449;28;20034;-82
2024/01/19 13:03:29;;;;;;;0.55;0.55;;;10.40;99.90;;;;;;5014115;28;20033;-82
2024/01/19 13:06:00;;;;;;;0.63;0.63;;;10.90;99.90;;;;;;5014389;28;20030;-79
2024/01/19 13:08:26;;;;;;;1.40;1.00;;;10.40;99.90;;;;;;5013752;28;20184;-80